Polk Army Air Field Fort Polk US
ICAO: KPOE
IATA: POE
Category: Medium
Scheduled Services: No

Elevation: 330 ft
TransAlt. 18000 ft.

Airport Communications:
APP/DEP:123.7
ATIS:134.85
FLT FOLLOWING:123.7
GND:121.8
RANGE CON:40.95
MEDEVAC OPS:42.5
POE OPS:36.05
PMSV METRO:135
TWR:41.5

KPOE Zoom In..

Runways:

(A) RW 16 length 4109 ft width 125 ft
---- / hdg 158

(B) RW 34 length 4109 ft width 125 ft
---- / hdg 338

Location; KPOE
Day. 20 / Time. 19.58 Zulu
* Altimeter: 29.94
* Temperature: 34° c. 93.2°f.
* Wind from: 270° Speed 11 kn.
Dewpoint: 22° c.
Visibility: 10 Statute Miles.
Clouds: Clear (automated report).

KPOE 201958Z AUTO 27011KT 10SM CLR 34/22 A2994 RMK AO2 SLP137 T03430224


Wind From 270°
Speed 11 kn.

 
 
jpsmedia.com for Web Design worldairports.se 2018   terms of use